createdAt,value
2018-07-05T00:01:12.018Z,19.47
2018-07-05T00:03:45.896Z,21.77
2018-07-05T00:06:19.673Z,15.73
2018-07-05T00:08:53.438Z,17.73
2018-07-05T00:11:27.579Z,12.63
2018-07-05T00:14:01.460Z,10.03
2018-07-05T00:16:35.151Z,10.80
2018-07-05T00:19:08.808Z,12.63
2018-07-05T00:21:42.751Z,22.43
2018-07-05T00:24:16.609Z,12.03
2018-07-05T00:26:50.467Z,10.80
2018-07-05T00:29:24.314Z,9.13
2018-07-05T00:31:58.159Z,11.87
2018-07-05T00:34:31.868Z,12.43
2018-07-05T00:37:05.721Z,10.57
2018-07-05T00:39:39.484Z,10.27
2018-07-05T00:42:13.183Z,12.70
2018-07-05T00:44:47.031Z,13.23
2018-07-05T00:47:20.790Z,13.30
2018-07-05T00:49:54.615Z,12.90
2018-07-05T00:52:28.660Z,12.33
2018-07-05T00:55:02.423Z,13.50
2018-07-05T00:57:36.233Z,18.40
2018-07-05T01:00:10.075Z,12.70
2018-07-05T01:02:43.976Z,17.47
2018-07-05T01:05:17.777Z,18.73
2018-07-05T01:07:51.759Z,17.13
2018-07-05T01:10:27.692Z,24.63
2018-07-05T01:13:05.029Z,23.03
2018-07-05T01:15:41.197Z,25.53
2018-07-05T01:18:17.652Z,27.00
2018-07-05T01:20:53.731Z,31.50
2018-07-05T01:23:29.840Z,25.57
2018-07-05T01:26:06.427Z,59.80
2018-07-05T01:28:43.535Z,33.63
2018-07-05T01:31:20.252Z,31.43
2018-07-05T01:33:56.172Z,28.50
2018-07-05T01:36:33.269Z,23.40
2018-07-05T01:39:11.384Z,23.10
2018-07-05T01:41:48.404Z,23.70
2018-07-05T01:44:24.565Z,22.63
2018-07-05T01:47:01.024Z,19.57
2018-07-05T01:49:38.505Z,23.27
2018-07-05T01:52:15.630Z,25.47
2018-07-05T01:54:51.921Z,18.27
2018-07-05T01:57:29.036Z,21.20
2018-07-05T02:00:07.258Z,20.23
2018-07-05T02:02:44.079Z,16.05
2018-07-05T02:05:20.174Z,23.17
2018-07-05T02:07:56.049Z,17.80
2018-07-05T02:10:32.672Z,22.07
2018-07-05T02:13:08.629Z,23.92
2018-07-05T02:15:44.353Z,23.70
2018-07-05T02:18:20.395Z,21.93
2018-07-05T02:20:56.921Z,36.65
2018-07-05T02:23:34.486Z,35.55
2018-07-05T02:26:10.119Z,25.88
2018-07-05T02:28:46.099Z,23.05
2018-07-05T02:31:22.617Z,14.60
2018-07-05T02:34:04.098Z,17.13
2018-07-05T02:36:40.057Z,20.72
2018-07-05T02:39:22.022Z,12.57
2018-07-05T02:41:57.551Z,15.28
2018-07-05T02:44:34.157Z,16.27
2018-07-05T02:47:09.648Z,20.45
2018-07-05T02:49:45.407Z,11.73
2018-07-05T02:52:21.285Z,15.10
2018-07-05T02:54:57.188Z,12.18
2018-07-05T02:57:32.865Z,15.43
2018-07-05T03:00:08.621Z,14.87
2018-07-05T03:02:44.514Z,18.67
2018-07-05T03:05:21.155Z,15.95
2018-07-05T03:07:57.156Z,18.27
2018-07-05T03:10:33.002Z,29.27
2018-07-05T03:13:08.386Z,19.67
2018-07-05T03:15:44.035Z,32.23
2018-07-05T03:18:20.142Z,23.30
2018-07-05T03:20:55.472Z,19.75
2018-07-05T03:23:31.277Z,22.65
2018-07-05T03:26:07.712Z,24.65
2018-07-05T03:28:43.970Z,21.53
2018-07-05T03:31:19.710Z,20.95
2018-07-05T03:33:56.648Z,26.15
2018-07-05T03:36:30.606Z,30.53
2018-07-05T03:39:04.734Z,21.67
2018-07-05T03:41:38.716Z,18.40
2018-07-05T03:44:12.548Z,25.00
2018-07-05T03:46:46.265Z,14.87
2018-07-05T03:49:20.166Z,20.93
2018-07-05T03:51:54.048Z,21.13
2018-07-05T03:54:27.810Z,16.87
2018-07-05T03:57:01.724Z,21.97
2018-07-05T03:59:35.511Z,20.95
2018-07-05T04:02:09.370Z,19.32
2018-07-05T04:04:43.133Z,18.57
2018-07-05T04:07:17.076Z,20.07
2018-07-05T04:09:51.001Z,26.50
2018-07-05T04:12:24.797Z,23.40
2018-07-05T04:14:58.488Z,22.40
2018-07-05T04:17:32.296Z,27.37
2018-07-05T04:20:06.110Z,17.30
2018-07-05T04:22:39.894Z,24.20
2018-07-05T04:25:13.607Z,22.70
2018-07-05T04:27:47.532Z,19.90
2018-07-05T04:30:21.526Z,19.83
2018-07-05T04:32:55.444Z,19.75
2018-07-05T04:35:29.361Z,22.52
2018-07-05T04:38:03.373Z,23.43
2018-07-05T04:40:37.305Z,15.03
2018-07-05T04:43:11.101Z,19.00
2018-07-05T04:45:45.090Z,16.53
2018-07-05T04:48:18.843Z,26.13
2018-07-05T04:50:52.667Z,17.25
2018-07-05T04:53:26.383Z,22.80
2018-07-05T04:56:00.472Z,21.20
2018-07-05T04:58:34.408Z,30.33
2018-07-05T05:01:08.216Z,35.63
2018-07-05T05:03:42.049Z,77.03
2018-07-05T05:06:15.965Z,85.43
2018-07-05T05:08:49.881Z,78.00
2018-07-05T05:11:23.686Z,82.20
2018-07-05T05:13:57.532Z,64.67
2018-07-05T05:16:31.289Z,38.60
2018-07-05T05:19:05.084Z,39.07
2018-07-05T05:21:38.900Z,49.93
2018-07-05T05:24:12.717Z,39.13
2018-07-05T05:26:46.522Z,33.27
2018-07-05T05:29:20.258Z,29.77
2018-07-05T05:31:54.060Z,35.50
2018-07-05T05:34:28.062Z,38.00
2018-07-05T05:37:02.013Z,34.63
2018-07-05T05:39:35.823Z,38.77
2018-07-05T05:42:09.688Z,36.07
2018-07-05T05:44:43.524Z,27.63
2018-07-05T05:47:17.397Z,30.60
2018-07-05T05:49:51.230Z,28.53
2018-07-05T05:52:24.990Z,27.53
2018-07-05T05:54:58.778Z,25.30
2018-07-05T05:57:32.633Z,26.90
2018-07-05T06:00:06.400Z,23.63
2018-07-05T06:02:40.369Z,31.73
2018-07-05T06:05:14.223Z,45.53
2018-07-05T06:07:48.142Z,19.63
2018-07-05T06:10:21.984Z,26.87
2018-07-05T06:12:55.697Z,33.03
2018-07-05T06:15:29.389Z,27.37
2018-07-05T06:18:03.278Z,22.83
2018-07-05T06:20:37.077Z,22.37
2018-07-05T06:23:10.840Z,16.97
2018-07-05T06:25:44.748Z,18.67
2018-07-05T06:28:18.583Z,21.73
2018-07-05T06:30:52.320Z,25.77
2018-07-05T06:33:26.157Z,25.00
2018-07-05T06:36:00.228Z,20.77
2018-07-05T06:38:34.121Z,26.60
2018-07-05T06:41:07.955Z,19.60
2018-07-05T06:43:41.834Z,25.40
2018-07-05T06:46:15.854Z,18.73
2018-07-05T06:48:49.811Z,30.20
2018-07-05T06:51:23.885Z,18.37
2018-07-05T06:53:58.720Z,14.33
2018-07-05T06:56:32.542Z,36.33
2018-07-05T06:59:06.782Z,17.90
2018-07-05T07:01:40.695Z,23.57
2018-07-05T07:04:14.517Z,25.23
2018-07-05T07:06:48.558Z,20.93
2018-07-05T07:09:22.544Z,16.20
2018-07-05T07:11:56.576Z,21.03
2018-07-05T07:14:30.487Z,19.80
2018-07-05T07:17:04.453Z,25.20
2018-07-05T07:19:38.426Z,27.33
2018-07-05T07:22:12.348Z,26.83
2018-07-05T07:24:46.296Z,24.73
2018-07-05T07:27:20.044Z,18.57
2018-07-05T07:29:53.766Z,19.47
2018-07-05T07:32:29.526Z,25.67
2018-07-05T07:35:03.809Z,21.07
2018-07-05T07:37:37.832Z,17.87
2018-07-05T07:40:11.623Z,12.63
2018-07-05T07:42:39.456Z,14.43
2018-07-05T07:45:07.246Z,13.57
2018-07-05T07:47:34.983Z,11.00
2018-07-05T07:50:02.903Z,16.83
2018-07-05T07:52:30.679Z,15.67
2018-07-05T07:54:59.645Z,14.67
2018-07-05T07:57:27.392Z,9.67
2018-07-05T07:59:55.197Z,9.40
2018-07-05T08:02:22.952Z,12.53
2018-07-05T08:04:50.718Z,14.73
2018-07-05T08:07:18.430Z,15.77
2018-07-05T08:09:46.168Z,21.53
2018-07-05T08:12:13.932Z,28.20
2018-07-05T08:14:41.710Z,16.43
2018-07-05T08:17:09.554Z,13.10
2018-07-05T08:19:37.372Z,10.10
2018-07-05T08:22:05.126Z,10.03
2018-07-05T08:24:33.198Z,8.83
2018-07-05T08:27:01.049Z,18.33
2018-07-05T08:29:28.801Z,13.10
2018-07-05T08:31:56.549Z,13.90
2018-07-05T08:34:24.345Z,12.63
2018-07-05T08:36:52.307Z,8.40
2018-07-05T08:39:20.187Z,19.23
2018-07-05T08:41:48.430Z,16.83
2018-07-05T08:44:16.202Z,10.37
2018-07-05T08:46:45.295Z,14.07
2018-07-05T08:49:13.034Z,15.73
2018-07-05T08:51:42.800Z,10.90
2018-07-05T08:54:10.546Z,8.60
2018-07-05T08:56:38.301Z,10.07
2018-07-05T08:59:06.084Z,7.67
2018-07-05T09:01:33.825Z,8.67
2018-07-05T09:04:01.719Z,9.43
2018-07-05T09:06:34.499Z,9.60
2018-07-05T09:09:02.362Z,8.60
2018-07-05T09:11:30.542Z,10.03
2018-07-05T09:13:58.267Z,9.57
2018-07-05T09:16:26.052Z,16.93
2018-07-05T09:18:53.880Z,24.67
2018-07-05T09:21:22.421Z,11.70
2018-07-05T09:23:50.501Z,7.20
2018-07-05T09:26:18.264Z,11.77
2018-07-05T09:28:45.999Z,9.80
2018-07-05T09:31:13.896Z,6.43
2018-07-05T09:33:41.624Z,7.23
2018-07-05T09:36:09.705Z,8.60
2018-07-05T09:38:37.501Z,12.33
2018-07-05T09:41:05.316Z,8.00
2018-07-05T09:43:33.090Z,9.13
2018-07-05T09:46:00.838Z,7.87
2018-07-05T09:48:28.666Z,9.53
2018-07-05T09:50:56.795Z,6.60
2018-07-05T09:53:24.624Z,6.93
2018-07-05T09:55:53.430Z,10.23
2018-07-05T09:58:21.451Z,19.83
2018-07-05T10:00:49.768Z,10.97
2018-07-05T10:03:18.833Z,22.53
2018-07-05T10:05:46.881Z,7.00
2018-07-05T10:08:15.796Z,17.13
2018-07-05T10:10:43.671Z,9.07
2018-07-05T10:13:12.059Z,7.93
2018-07-05T10:15:39.780Z,16.23
2018-07-05T10:18:07.689Z,14.30
2018-07-05T10:20:35.517Z,5.57
2018-07-05T10:23:03.267Z,6.43
2018-07-05T10:25:31.045Z,6.80
2018-07-05T10:27:58.966Z,8.47
2018-07-05T10:30:32.902Z,5.60
2018-07-05T10:33:06.843Z,9.13
2018-07-05T10:35:34.654Z,110.47
2018-07-05T10:38:03.433Z,16.37
2018-07-05T10:40:37.740Z,17.10
2018-07-05T10:43:11.620Z,9.80
2018-07-05T10:45:45.384Z,46.50
2018-07-05T10:48:19.639Z,15.47
2018-07-05T10:50:53.597Z,13.47
2018-07-05T10:53:27.533Z,14.30
2018-07-05T10:56:01.577Z,13.40
2018-07-05T10:58:35.534Z,11.30
2018-07-05T11:01:09.444Z,7.23
2018-07-05T11:03:43.692Z,12.53
2018-07-05T11:06:17.517Z,6.10
2018-07-05T11:08:51.553Z,9.50
2018-07-05T11:11:25.376Z,10.13
2018-07-05T11:14:00.201Z,9.50
2018-07-05T11:16:34.138Z,9.43
2018-07-05T11:19:08.253Z,10.50
2018-07-05T11:21:42.272Z,7.40
2018-07-05T11:24:16.255Z,7.63
2018-07-05T11:26:49.963Z,5.70
2018-07-05T11:29:23.878Z,4.97
2018-07-05T11:31:57.760Z,4.83
2018-07-05T11:34:31.639Z,7.80
2018-07-05T11:37:05.449Z,11.33
2018-07-05T11:39:39.153Z,4.63
2018-07-05T11:42:12.946Z,9.00
2018-07-05T11:44:47.066Z,4.97
2018-07-05T11:47:21.076Z,5.40
2018-07-05T11:49:55.134Z,5.30
2018-07-05T11:52:28.896Z,5.67
2018-07-05T11:55:02.708Z,6.43
2018-07-05T11:57:36.504Z,5.67
2018-07-05T12:00:10.342Z,6.93
2018-07-05T12:02:44.034Z,8.40
2018-07-05T12:05:17.827Z,7.33
2018-07-05T12:07:51.526Z,7.10
2018-07-05T12:10:25.369Z,8.63
2018-07-05T12:12:59.287Z,6.73
2018-07-05T12:15:33.167Z,6.90
2018-07-05T12:18:07.461Z,10.37
2018-07-05T12:20:41.429Z,6.53
2018-07-05T12:23:15.396Z,11.20
2018-07-05T12:25:49.280Z,8.10
2018-07-05T12:28:22.972Z,7.63
2018-07-05T12:30:57.051Z,8.40
2018-07-05T12:33:30.988Z,8.87
2018-07-05T12:36:05.040Z,7.90
2018-07-05T12:38:39.071Z,7.23
2018-07-05T12:41:13.017Z,9.13
2018-07-05T12:43:46.963Z,6.47
2018-07-05T12:46:20.853Z,6.00
2018-07-05T12:48:54.797Z,6.30
2018-07-05T12:51:28.536Z,10.37
2018-07-05T12:54:02.233Z,7.27
2018-07-05T12:56:36.102Z,6.30
2018-07-05T12:59:09.878Z,6.57
2018-07-05T13:01:43.730Z,5.63
2018-07-05T13:04:17.742Z,4.70
2018-07-05T13:06:51.508Z,5.77
2018-07-05T13:09:26.993Z,5.20
2018-07-05T13:12:03.598Z,5.00
2018-07-05T13:14:37.854Z,4.50
2018-07-05T13:17:11.919Z,4.20
2018-07-05T13:19:45.838Z,4.83
2018-07-05T13:22:19.527Z,4.27
2018-07-05T13:24:53.583Z,4.87
2018-07-05T13:27:27.505Z,4.10
2018-07-05T13:30:01.377Z,5.07
2018-07-05T13:32:35.387Z,4.40
2018-07-05T13:35:13.472Z,4.57
2018-07-05T13:37:47.208Z,3.93
2018-07-05T13:40:21.244Z,8.30
2018-07-05T13:42:55.045Z,4.07
2018-07-05T13:45:29.090Z,5.30
2018-07-05T13:48:02.981Z,4.60
2018-07-05T13:50:36.748Z,4.97
2018-07-05T13:53:10.555Z,9.53
2018-07-05T13:55:44.549Z,6.77
2018-07-05T13:58:18.494Z,6.90
2018-07-05T14:00:52.342Z,8.13
2018-07-05T14:03:26.229Z,4.07
2018-07-05T14:06:00.042Z,5.53
2018-07-05T14:08:33.768Z,4.97
2018-07-05T14:11:07.733Z,5.93
2018-07-05T14:13:41.484Z,5.40
2018-07-05T14:16:15.369Z,5.50
2018-07-05T14:18:49.559Z,3.57
2018-07-05T14:24:10.349Z,10.37
2018-07-05T14:26:44.114Z,3.67
2018-07-05T14:29:18.348Z,3.37
2018-07-05T14:31:52.375Z,6.40
2018-07-05T14:34:27.379Z,4.43
2018-07-05T14:37:01.096Z,4.53
2018-07-05T14:39:35.037Z,4.73
2018-07-05T14:42:08.928Z,4.70
2018-07-05T14:44:43.140Z,7.30
2018-07-05T14:47:17.163Z,8.60
2018-07-05T14:49:51.281Z,4.53
2018-07-05T14:52:26.757Z,3.10
2018-07-05T14:55:02.509Z,3.43
2018-07-05T14:57:36.458Z,4.20
2018-07-05T15:00:10.352Z,3.50
2018-07-05T15:02:44.259Z,5.07
2018-07-05T15:05:18.029Z,5.20
2018-07-05T15:07:52.059Z,4.30
2018-07-05T15:10:25.893Z,5.10
2018-07-05T15:12:59.815Z,4.90
2018-07-05T15:15:33.601Z,8.27
2018-07-05T15:18:07.304Z,5.37
2018-07-05T15:20:41.186Z,4.53
2018-07-05T15:23:14.953Z,4.60
2018-07-05T15:25:48.700Z,5.13
2018-07-05T15:28:22.669Z,6.43
2018-07-05T15:30:56.400Z,6.67
2018-07-05T15:33:30.079Z,7.83
2018-07-05T15:36:03.920Z,10.43
2018-07-05T15:38:37.629Z,5.50
2018-07-05T15:41:11.394Z,6.23
2018-07-05T15:43:45.232Z,5.83
2018-07-05T15:46:19.052Z,6.13
2018-07-05T15:48:52.966Z,7.27
2018-07-05T15:51:26.834Z,6.83
2018-07-05T15:54:00.584Z,8.00
2018-07-05T15:56:34.383Z,5.50
2018-07-05T15:59:08.090Z,8.03
2018-07-05T16:01:42.389Z,6.73
2018-07-05T16:04:16.555Z,6.30
2018-07-05T16:06:50.422Z,8.70
2018-07-05T16:09:24.202Z,9.03
2018-07-05T16:11:58.035Z,8.00
2018-07-05T16:14:31.865Z,9.60
2018-07-05T16:17:05.876Z,7.63
2018-07-05T16:19:39.879Z,9.73
2018-07-05T16:22:13.729Z,9.33
2018-07-05T16:24:47.530Z,8.63
2018-07-05T16:27:21.434Z,10.90
2018-07-05T16:29:55.227Z,14.37
2018-07-05T16:32:29.080Z,10.50
2018-07-05T16:35:03.034Z,13.87
2018-07-05T16:37:37.002Z,12.97
2018-07-05T16:40:12.488Z,13.33
2018-07-05T16:42:46.734Z,14.33
2018-07-05T16:45:20.630Z,15.53
2018-07-05T16:47:54.589Z,19.93
2018-07-05T16:50:28.349Z,14.40
2018-07-05T16:53:02.169Z,13.03
2018-07-05T16:55:35.937Z,17.33
2018-07-05T16:58:09.921Z,19.33
2018-07-05T17:00:43.718Z,16.57
2018-07-05T17:03:17.494Z,16.33
2018-07-05T17:05:51.390Z,17.50
2018-07-05T17:08:25.156Z,21.40
2018-07-05T17:10:58.878Z,19.03
2018-07-05T17:13:32.706Z,16.90
2018-07-05T17:16:06.653Z,21.83
2018-07-05T17:18:40.418Z,22.97
2018-07-05T17:21:14.197Z,18.83
2018-07-05T17:23:48.091Z,19.60
2018-07-05T17:26:22.128Z,22.53
2018-07-05T17:28:55.884Z,17.50
2018-07-05T17:31:31.705Z,21.37
2018-07-05T17:34:05.632Z,21.03
2018-07-05T17:36:39.575Z,19.47
2018-07-05T17:39:13.530Z,17.60
2018-07-05T17:41:47.750Z,17.73
2018-07-05T17:44:21.615Z,22.23
2018-07-05T17:46:55.463Z,21.50
2018-07-05T17:49:29.775Z,20.40
2018-07-05T17:52:03.654Z,17.93
2018-07-05T17:54:37.474Z,26.73
2018-07-05T17:57:11.228Z,25.27
2018-07-05T17:59:44.996Z,25.83
2018-07-05T18:02:18.924Z,18.20
2018-07-05T18:04:52.762Z,20.00
2018-07-05T18:07:26.682Z,19.17
2018-07-05T18:10:00.447Z,14.97
2018-07-05T18:12:34.304Z,17.77
2018-07-05T18:15:08.220Z,16.20
2018-07-05T18:17:42.153Z,14.97
2018-07-05T18:20:15.987Z,21.67
2018-07-05T18:22:49.723Z,14.87
2018-07-05T18:25:23.506Z,14.47
2018-07-05T18:27:57.393Z,21.33
2018-07-05T18:30:31.144Z,15.33
2018-07-05T18:33:05.014Z,11.07
2018-07-05T18:35:38.845Z,12.00
2018-07-05T18:38:12.837Z,11.00
2018-07-05T18:40:46.579Z,12.13
2018-07-05T18:43:20.348Z,12.53
2018-07-05T18:45:54.112Z,13.13
2018-07-05T18:48:27.816Z,17.17
2018-07-05T18:51:01.655Z,14.10
2018-07-05T18:53:35.441Z,11.50
2018-07-05T18:56:09.351Z,10.00
2018-07-05T19:02:07.532Z,12.10
2018-07-05T19:04:41.347Z,11.60
2018-07-05T19:07:15.142Z,9.80
2018-07-05T19:09:48.913Z,9.17
2018-07-05T19:12:22.621Z,11.00
2018-07-05T19:14:56.492Z,11.83
2018-07-05T19:17:30.262Z,8.90
2018-07-05T19:20:03.974Z,8.50
2018-07-05T19:22:37.889Z,9.63
2018-07-05T19:25:11.606Z,9.20
2018-07-05T19:27:45.514Z,7.93
2018-07-05T19:30:19.449Z,9.30
2018-07-05T19:32:53.221Z,11.60
2018-07-05T19:35:27.024Z,11.40
2018-07-05T19:38:00.744Z,9.60
2018-07-05T19:40:34.664Z,13.93
2018-07-05T19:43:08.467Z,10.90
2018-07-05T19:45:42.193Z,11.17
2018-07-05T19:48:15.911Z,11.90
2018-07-05T19:50:49.863Z,10.50
2018-07-05T19:53:23.583Z,12.70
2018-07-05T19:55:57.502Z,10.47
2018-07-05T19:58:31.416Z,11.50
2018-07-05T20:01:05.402Z,11.30
2018-07-05T20:03:41.329Z,11.60
2018-07-05T20:06:15.386Z,11.47
2018-07-05T20:08:49.186Z,12.07
2018-07-05T20:11:22.992Z,17.90
2018-07-05T20:13:56.964Z,11.97
2018-07-05T20:16:31.565Z,9.87
2018-07-05T20:19:05.609Z,11.50
2018-07-05T20:21:39.707Z,10.80
2018-07-05T20:24:13.531Z,13.60
2018-07-05T20:26:47.347Z,11.43
2018-07-05T20:29:21.209Z,12.37
2018-07-05T20:31:54.968Z,13.37
2018-07-05T20:34:28.914Z,11.57
2018-07-05T20:37:02.906Z,13.47
2018-07-05T20:39:36.730Z,13.30
2018-07-05T20:42:10.585Z,10.70
2018-07-05T20:44:44.525Z,10.80
2018-07-05T20:47:18.269Z,12.87
2018-07-05T20:49:52.132Z,9.97
2018-07-05T20:52:25.958Z,10.30
2018-07-05T20:54:59.844Z,20.30
2018-07-05T20:57:33.576Z,12.40
2018-07-05T21:00:07.491Z,13.30
2018-07-05T21:02:41.303Z,10.70
2018-07-05T21:05:15.091Z,11.00
2018-07-05T21:07:48.829Z,9.63
2018-07-05T21:10:22.637Z,8.20
2018-07-05T21:12:56.357Z,10.03
2018-07-05T21:15:30.188Z,9.63
2018-07-05T21:18:04.163Z,9.37
2018-07-05T21:20:37.980Z,14.77
2018-07-05T21:23:11.688Z,10.00
2018-07-05T21:25:45.497Z,10.03
2018-07-05T21:28:19.278Z,17.00
2018-07-05T21:30:53.053Z,8.77
2018-07-05T21:33:26.864Z,11.40
2018-07-05T21:36:00.620Z,12.60
2018-07-05T21:38:34.430Z,9.30
2018-07-05T21:41:10.301Z,11.43
2018-07-05T21:43:44.249Z,11.13
2018-07-05T21:46:17.938Z,10.13
2018-07-05T21:48:51.896Z,11.80
2018-07-05T21:51:25.833Z,15.23
2018-07-05T21:53:59.544Z,17.60
2018-07-05T21:56:33.510Z,16.03
2018-07-05T21:59:07.339Z,11.47
2018-07-05T22:01:41.212Z,11.67
2018-07-05T22:04:14.877Z,9.97
2018-07-05T22:06:48.806Z,12.00
2018-07-05T22:09:22.774Z,11.27
2018-07-05T22:11:56.613Z,8.87
2018-07-05T22:14:30.429Z,10.53
2018-07-05T22:17:09.799Z,9.40
2018-07-05T22:19:49.021Z,13.93
2018-07-05T22:22:28.468Z,11.40
2018-07-05T22:25:07.537Z,7.70
2018-07-05T22:27:46.738Z,10.90
2018-07-05T22:30:25.914Z,11.70
2018-07-05T22:32:59.900Z,7.77
2018-07-05T22:35:33.533Z,14.03
2018-07-05T22:38:07.400Z,14.23
2018-07-05T22:40:41.181Z,11.20
2018-07-05T22:43:14.908Z,11.60
2018-07-05T22:45:48.661Z,8.37
2018-07-05T22:48:22.404Z,11.00
2018-07-05T22:50:56.257Z,18.20
2018-07-05T22:53:29.988Z,11.30
2018-07-05T22:56:03.981Z,11.33
2018-07-05T22:58:37.635Z,13.17
2018-07-05T23:01:11.464Z,12.87
2018-07-05T23:03:45.402Z,9.73
2018-07-05T23:06:19.054Z,10.53
2018-07-05T23:08:52.954Z,11.47
2018-07-05T23:11:26.770Z,8.40
2018-07-05T23:14:00.723Z,7.43
2018-07-05T23:16:34.466Z,13.10
2018-07-05T23:19:08.604Z,8.20
2018-07-05T23:21:42.236Z,9.60
2018-07-05T23:24:16.156Z,12.83
2018-07-05T23:26:50.038Z,11.47
2018-07-05T23:29:23.821Z,8.93
2018-07-05T23:31:57.612Z,16.03
2018-07-05T23:34:31.382Z,18.63
2018-07-05T23:37:05.217Z,8.13
2018-07-05T23:39:39.070Z,8.97
2018-07-05T23:42:12.796Z,7.30
2018-07-05T23:44:46.530Z,12.10
2018-07-05T23:47:20.233Z,12.50
2018-07-05T23:49:54.029Z,12.37
2018-07-05T23:52:27.809Z,7.17
2018-07-05T23:55:01.565Z,12.33
2018-07-05T23:57:35.417Z,8.83
